createdAt,value
2024-02-22T07:24:39.580Z,39.08
2024-02-22T07:25:41.612Z,38.19
2024-02-22T07:26:40.759Z,37.62
2024-02-22T07:27:41.182Z,37.00
2024-02-22T07:28:40.838Z,36.66
2024-02-22T07:29:40.690Z,36.46
2024-02-22T07:30:40.746Z,36.24
2024-02-22T07:31:41.081Z,36.00
2024-02-22T07:32:41.009Z,35.77
2024-02-22T07:33:42.088Z,35.65
2024-02-22T07:34:40.786Z,35.50
2024-02-22T07:35:43.966Z,35.26
2024-02-22T07:36:40.812Z,35.17
2024-02-22T07:37:40.820Z,34.93
2024-02-22T07:38:40.791Z,34.89
2024-02-22T07:39:40.779Z,34.81
2024-02-22T07:40:40.822Z,34.73
2024-02-22T07:41:40.947Z,34.64
2024-02-22T07:42:40.800Z,34.52
2024-02-22T07:43:40.833Z,34.38
2024-02-22T07:44:40.787Z,34.27
2024-02-22T07:45:40.894Z,34.14
2024-02-22T07:46:40.817Z,34.03
2024-02-22T07:47:41.482Z,33.93
2024-02-22T07:48:40.885Z,33.85
2024-02-22T07:49:40.796Z,33.78
2024-02-22T07:50:40.958Z,33.71
2024-02-22T07:51:50.203Z,33.64
2024-02-22T07:52:41.115Z,33.59
2024-02-22T07:53:40.804Z,33.73
2024-02-22T07:54:40.832Z,33.95
2024-02-22T07:55:40.899Z,34.01
2024-02-22T07:56:40.904Z,33.93
2024-02-22T07:57:41.448Z,33.82
2024-02-22T07:58:40.823Z,33.94
2024-02-22T07:59:40.814Z,33.94
2024-02-22T08:00:40.999Z,33.84
2024-02-22T08:01:40.844Z,33.92
2024-02-22T08:02:40.987Z,33.45
2024-02-22T08:03:40.974Z,33.40
2024-02-22T08:04:41.082Z,33.67
2024-02-22T08:05:40.906Z,33.72
2024-02-22T08:06:40.877Z,33.51
2024-02-22T08:07:40.867Z,33.75
2024-02-22T08:08:41.974Z,33.79
2024-02-22T08:09:40.818Z,33.69
2024-02-22T08:10:40.858Z,33.68
2024-02-22T08:11:41.020Z,33.64
2024-02-22T08:12:40.855Z,33.64
2024-02-22T08:13:40.867Z,33.50
2024-02-22T08:14:41.377Z,33.36
2024-02-22T08:15:40.830Z,33.27
2024-02-22T08:16:40.851Z,33.16
2024-02-22T08:17:40.884Z,33.12
2024-02-22T08:18:40.846Z,33.04
2024-02-22T08:19:41.079Z,33.20
2024-02-22T08:20:41.034Z,33.15
2024-02-22T08:21:40.913Z,33.03
2024-02-22T08:22:40.974Z,32.91
2024-02-22T08:23:41.615Z,33.24
2024-02-22T08:24:40.998Z,33.18
2024-02-22T08:25:41.086Z,33.32
2024-02-22T08:26:41.465Z,32.87
2024-02-22T08:27:50.153Z,32.86
2024-02-22T08:28:41.569Z,32.81
2024-02-22T08:29:41.033Z,32.77
2024-02-22T08:30:41.053Z,32.81
2024-02-22T08:31:41.698Z,32.72
2024-02-22T08:32:41.106Z,32.68
2024-02-22T08:33:41.537Z,32.60
2024-02-22T08:34:41.085Z,32.72
2024-02-22T08:35:41.045Z,32.76
2024-02-22T08:36:41.054Z,33.11
2024-02-22T08:37:41.077Z,32.76
2024-02-22T08:38:41.478Z,32.49
2024-02-22T08:39:41.464Z,32.37
2024-02-22T08:40:41.077Z,32.30
2024-02-22T08:41:41.095Z,32.11
2024-02-22T08:42:41.062Z,32.08
2024-02-22T08:43:42.093Z,32.07
2024-02-22T08:44:41.493Z,32.33
2024-02-22T08:45:41.182Z,32.57
2024-02-22T08:46:41.120Z,32.59
2024-02-22T08:47:44.451Z,32.63
2024-02-22T08:48:41.883Z,32.64
2024-02-22T08:49:41.164Z,32.64
2024-02-22T08:50:41.075Z,32.54
2024-02-22T08:51:41.084Z,32.54
2024-02-22T08:52:41.124Z,32.70
2024-02-22T08:53:41.500Z,32.74
2024-02-22T08:54:41.103Z,32.49
2024-02-22T08:55:41.170Z,32.41
2024-02-22T08:56:41.099Z,32.06
2024-02-22T08:57:51.220Z,31.74
2024-02-22T08:58:41.127Z,31.69
2024-02-22T08:59:41.518Z,31.56
2024-02-22T09:00:41.513Z,31.43
2024-02-22T09:01:41.200Z,31.26
2024-02-22T09:02:41.123Z,31.29
2024-02-22T09:03:41.517Z,31.19
2024-02-22T09:04:41.164Z,31.07
2024-02-22T09:05:41.143Z,31.01
2024-02-22T09:06:41.617Z,30.92
2024-02-22T09:07:41.343Z,30.86
2024-02-22T09:08:41.221Z,30.85
2024-02-22T09:09:41.113Z,30.84
2024-02-22T09:10:41.143Z,30.79
2024-02-22T09:11:41.185Z,30.71
2024-02-22T09:12:41.579Z,30.72
2024-02-22T09:13:44.325Z,30.77
2024-02-22T09:14:41.486Z,30.78
2024-02-22T09:15:42.755Z,30.70
2024-02-22T09:16:41.266Z,30.69
2024-02-22T09:17:41.172Z,30.73
2024-02-22T09:18:41.217Z,30.73
2024-02-22T09:19:41.274Z,30.68
2024-02-22T09:20:41.155Z,30.70
2024-02-22T09:21:41.531Z,30.70
2024-02-22T09:22:41.159Z,30.76
2024-02-22T09:23:41.737Z,30.75
2024-02-22T09:24:41.205Z,30.72
2024-02-22T09:25:41.308Z,30.68
2024-02-22T09:26:41.312Z,30.61
2024-02-22T09:27:41.380Z,30.63
2024-02-22T09:28:41.495Z,30.60
2024-02-22T09:29:41.475Z,30.57
2024-02-22T09:30:41.536Z,30.58
2024-02-22T09:31:41.659Z,30.58
2024-02-22T09:32:41.687Z,30.45
2024-02-22T09:33:41.779Z,30.49
2024-02-22T09:34:41.830Z,30.52
2024-02-22T09:35:41.828Z,30.51
2024-02-22T09:36:42.063Z,30.46
2024-02-22T09:37:41.890Z,30.38
2024-02-22T09:38:41.927Z,30.44
2024-02-22T09:39:41.961Z,30.34
2024-02-22T09:40:42.062Z,30.33
2024-02-22T09:41:42.493Z,30.57
2024-02-22T09:42:42.066Z,30.60
2024-02-22T09:43:42.140Z,30.74
2024-02-22T09:44:42.271Z,30.89
2024-02-22T09:45:43.196Z,30.98
2024-02-22T09:46:42.600Z,31.21
2024-02-22T09:47:42.388Z,31.29
2024-02-22T09:48:42.537Z,31.40
2024-02-22T09:49:42.563Z,31.43
2024-02-22T09:50:42.669Z,31.40
2024-02-22T09:51:43.005Z,31.63
2024-02-22T09:52:43.071Z,31.74
2024-02-22T09:53:42.738Z,31.53
2024-02-22T09:54:42.762Z,31.55
2024-02-22T09:55:42.888Z,31.59
2024-02-22T09:56:42.998Z,31.28
2024-02-22T09:57:42.993Z,30.71
2024-02-22T09:58:42.993Z,30.55
2024-02-22T09:59:43.011Z,30.20
2024-02-22T10:00:58.752Z,29.65
2024-02-22T10:01:43.580Z,29.71
2024-02-22T10:02:43.077Z,29.08
2024-02-22T10:03:43.135Z,28.89
2024-02-22T10:04:43.203Z,29.17
2024-02-22T10:05:43.195Z,28.54
2024-02-22T10:06:43.552Z,28.42
2024-02-22T10:07:43.157Z,28.47
2024-02-22T10:08:45.881Z,28.07
2024-02-22T10:09:43.110Z,27.86
2024-02-22T10:10:43.198Z,28.78
2024-02-22T10:11:43.659Z,28.61
2024-02-22T10:12:43.617Z,28.27
2024-02-22T10:13:43.279Z,28.50
2024-02-22T10:14:43.195Z,28.75
2024-02-22T10:15:43.108Z,28.74
2024-02-22T10:16:43.603Z,28.85
2024-02-22T10:17:43.168Z,28.38
2024-02-22T10:18:43.216Z,28.58
2024-02-22T10:19:43.118Z,28.57
2024-02-22T10:20:45.097Z,28.29
2024-02-22T10:21:43.358Z,27.76
2024-02-22T10:22:43.563Z,27.54
2024-02-22T10:23:43.102Z,27.43
2024-02-22T10:24:43.111Z,27.96
2024-02-22T10:25:43.155Z,27.96
2024-02-22T10:26:43.126Z,28.01
2024-02-22T10:27:44.557Z,28.09
2024-02-22T10:28:43.154Z,27.93
2024-02-22T10:29:43.160Z,27.50
2024-02-22T10:30:43.516Z,27.24
2024-02-22T10:31:43.302Z,27.60
2024-02-22T10:32:43.945Z,27.44
2024-02-22T10:33:43.477Z,27.67
2024-02-22T10:34:43.484Z,27.39
2024-02-22T10:35:43.502Z,27.36
2024-02-22T10:36:43.544Z,27.39
2024-02-22T10:37:44.594Z,26.45
2024-02-22T10:38:43.600Z,26.69
2024-02-22T10:39:43.640Z,27.07
2024-02-22T10:40:43.724Z,26.89
2024-02-22T10:41:43.723Z,27.13
2024-02-22T10:42:44.012Z,27.04
2024-02-22T10:43:43.809Z,27.30
2024-02-22T10:44:43.853Z,26.92
2024-02-22T10:45:43.909Z,27.37
2024-02-22T10:46:44.068Z,27.15
2024-02-22T10:47:44.602Z,27.37
2024-02-22T10:48:44.228Z,27.62
2024-02-22T10:49:44.189Z,27.80
2024-02-22T10:50:44.254Z,27.46
2024-02-22T10:51:44.328Z,27.28
2024-02-22T10:52:44.454Z,27.56
2024-02-22T10:53:44.452Z,27.49
2024-02-22T10:54:44.580Z,27.16
2024-02-22T10:55:44.629Z,27.47
2024-02-22T10:56:44.663Z,27.44
2024-02-22T10:57:44.733Z,27.29
2024-02-22T10:58:45.965Z,26.88
2024-02-22T10:59:44.886Z,27.44
2024-02-22T11:00:44.984Z,27.54
2024-02-22T11:01:45.055Z,27.47
2024-02-22T11:02:45.519Z,27.50
2024-02-22T11:03:45.146Z,27.14
2024-02-22T11:04:45.185Z,26.95
2024-02-22T11:05:45.241Z,27.37
2024-02-22T11:06:45.317Z,27.42
2024-02-22T11:07:45.429Z,27.25
2024-02-22T11:08:45.498Z,27.45
2024-02-22T11:09:45.462Z,27.16
2024-02-22T11:10:45.544Z,27.09
2024-02-22T11:11:45.704Z,27.29
2024-02-22T11:12:45.611Z,26.94
2024-02-22T11:13:45.690Z,27.29
2024-02-22T11:14:45.714Z,27.13
2024-02-22T11:15:45.770Z,27.35
2024-02-22T11:16:45.849Z,27.38
2024-02-22T11:17:46.033Z,26.89
2024-02-22T11:18:45.958Z,26.79
2024-02-22T11:19:45.995Z,27.16
2024-02-22T11:20:46.018Z,26.55
2024-02-22T11:21:46.083Z,26.59
2024-02-22T11:22:46.591Z,26.86
2024-02-22T11:23:46.640Z,27.06
2024-02-22T11:24:46.277Z,27.17
2024-02-22T11:25:46.299Z,27.25
2024-02-22T11:26:46.319Z,27.37
2024-02-22T11:27:46.536Z,27.52
2024-02-22T11:28:46.554Z,27.57
2024-02-22T11:29:46.546Z,27.67
2024-02-22T11:30:46.557Z,27.79
2024-02-22T11:31:46.658Z,27.97
2024-02-22T11:32:47.051Z,28.17
2024-02-22T11:33:46.847Z,28.24
2024-02-22T11:34:46.788Z,28.40
2024-02-22T11:35:46.783Z,28.47
2024-02-22T11:36:46.830Z,28.45
2024-02-22T11:37:47.064Z,28.52
2024-02-22T11:38:47.006Z,28.53
2024-02-22T11:39:46.976Z,28.60
2024-02-22T11:40:47.077Z,28.55
2024-02-22T11:41:47.031Z,28.58
2024-02-22T11:42:47.069Z,28.70
2024-02-22T11:43:47.153Z,28.59
2024-02-22T11:44:47.667Z,28.70
2024-02-22T11:45:47.191Z,28.75
2024-02-22T11:46:47.247Z,28.79
2024-02-22T11:47:47.325Z,28.82
2024-02-22T11:48:47.348Z,28.88
2024-02-22T11:49:47.350Z,28.92
2024-02-22T11:50:47.365Z,28.95
2024-02-22T11:51:47.403Z,29.13
2024-02-22T11:52:47.559Z,29.20
2024-02-22T11:53:48.030Z,29.25
2024-02-22T11:54:47.500Z,29.38
2024-02-22T11:55:47.552Z,29.39
2024-02-22T11:56:47.581Z,29.37
2024-02-22T11:57:47.600Z,29.48
2024-02-22T11:58:47.639Z,29.55
2024-02-22T11:59:48.038Z,29.46
2024-02-22T12:00:47.732Z,29.43
2024-02-22T12:01:47.752Z,29.45
2024-02-22T12:02:47.780Z,29.49
2024-02-22T12:03:47.785Z,29.60
2024-02-22T12:04:47.836Z,29.62
2024-02-22T12:05:47.910Z,29.80
2024-02-22T12:06:47.957Z,29.91
2024-02-22T12:07:47.929Z,29.91
2024-02-22T12:08:47.923Z,30.04
2024-02-22T12:09:47.953Z,30.08
2024-02-22T12:10:48.197Z,30.18
2024-02-22T12:11:48.065Z,30.15
2024-02-22T12:12:48.059Z,30.29
2024-02-22T12:13:48.109Z,30.34
2024-02-22T12:14:48.550Z,30.35
2024-02-22T12:15:48.193Z,30.33
2024-02-22T12:16:48.193Z,30.26
2024-02-22T12:17:48.551Z,30.40
2024-02-22T12:18:48.256Z,30.45
2024-02-22T12:19:48.564Z,30.54
2024-02-22T12:20:48.274Z,30.56
2024-02-22T12:21:48.334Z,30.41
2024-02-22T12:22:48.315Z,30.56
2024-02-22T12:23:48.294Z,30.72
2024-02-22T12:24:48.306Z,30.74
2024-02-22T12:25:48.330Z,30.77
2024-02-22T12:26:48.306Z,30.82
2024-02-22T12:27:48.313Z,30.82
2024-02-22T12:28:48.372Z,30.85
2024-02-22T12:29:48.341Z,30.88
2024-02-22T12:30:48.345Z,30.83
2024-02-22T12:31:48.364Z,30.64
2024-02-22T12:32:48.681Z,30.76
2024-02-22T12:33:48.502Z,30.78
2024-02-22T12:34:48.522Z,30.81
2024-02-22T12:35:48.523Z,30.81
2024-02-22T12:36:48.561Z,30.76
2024-02-22T12:37:49.070Z,30.84
2024-02-22T12:38:48.603Z,30.92
2024-02-22T12:39:48.714Z,30.93
2024-02-22T12:40:48.823Z,30.85
2024-02-22T12:41:49.145Z,30.85
2024-02-22T12:42:48.836Z,30.90
2024-02-22T12:43:48.973Z,30.87
2024-02-22T12:44:49.967Z,30.94
2024-02-22T12:45:48.993Z,30.94
2024-02-22T12:46:49.071Z,30.90
2024-02-22T12:47:49.306Z,30.94
2024-02-22T12:48:49.260Z,30.83
2024-02-22T12:49:49.281Z,30.92
2024-02-22T12:50:49.286Z,30.86
2024-02-22T12:51:49.346Z,30.96
2024-02-22T12:52:49.395Z,30.90
2024-02-22T12:53:49.430Z,30.94
2024-02-22T12:54:49.476Z,31.02
2024-02-22T12:55:49.572Z,31.08
2024-02-22T12:56:49.559Z,31.02
2024-02-22T12:57:49.608Z,30.97
2024-02-22T12:58:49.752Z,30.93
2024-02-22T12:59:49.669Z,30.85
2024-02-22T13:00:49.783Z,30.92
2024-02-22T13:01:49.803Z,31.00
2024-02-22T13:02:49.846Z,31.04
2024-02-22T13:03:49.894Z,31.07
2024-02-22T13:04:50.008Z,30.96
2024-02-22T13:05:49.983Z,30.89
2024-02-22T13:06:50.083Z,30.97
2024-02-22T13:07:50.647Z,30.89
2024-02-22T13:08:50.137Z,30.84
2024-02-22T13:09:50.184Z,30.74
2024-02-22T13:10:50.297Z,30.69
2024-02-22T13:11:50.465Z,30.61
2024-02-22T13:12:50.586Z,30.64
2024-02-22T13:13:50.402Z,30.69
2024-02-22T13:14:50.397Z,30.74
2024-02-22T13:15:50.457Z,30.77
2024-02-22T13:16:50.490Z,30.69
2024-02-22T13:17:50.605Z,30.77
2024-02-22T13:18:50.656Z,30.76
2024-02-22T13:19:50.689Z,30.77
2024-02-22T13:20:50.615Z,30.71
2024-02-22T13:21:50.655Z,30.62
2024-02-22T13:22:51.281Z,30.76
2024-02-22T13:23:51.100Z,30.89
2024-02-22T13:24:50.816Z,30.91
2024-02-22T13:25:50.911Z,30.91
2024-02-22T13:26:50.934Z,30.94
2024-02-22T13:27:51.150Z,30.91
2024-02-22T13:28:51.118Z,30.77
2024-02-22T13:29:51.060Z,30.77
2024-02-22T13:30:51.118Z,30.76
2024-02-22T13:31:51.179Z,30.82
2024-02-22T13:32:52.298Z,30.76
2024-02-22T13:33:51.730Z,30.80
2024-02-22T13:34:51.436Z,30.79
2024-02-22T13:35:51.355Z,30.79
2024-02-22T13:36:51.396Z,30.82
2024-02-22T13:37:51.472Z,30.78
2024-02-22T13:38:51.600Z,30.82
2024-02-22T13:39:58.033Z,30.83
2024-02-22T13:40:51.560Z,30.85
2024-02-22T13:41:51.834Z,30.82
2024-02-22T13:42:51.518Z,30.77
2024-02-22T13:43:51.551Z,30.74
2024-02-22T13:44:51.618Z,30.82
2024-02-22T13:45:51.547Z,30.85
2024-02-22T13:46:51.583Z,30.81
2024-02-22T13:47:51.782Z,30.80
2024-02-22T13:48:51.959Z,30.81
2024-02-22T13:49:51.652Z,30.85
2024-02-22T13:50:51.544Z,30.81
2024-02-22T13:51:51.547Z,30.80
2024-02-22T13:52:51.597Z,30.87
2024-02-22T13:53:51.814Z,30.85
2024-02-22T13:54:51.808Z,30.94
2024-02-22T13:55:51.887Z,30.81
2024-02-22T13:56:52.830Z,30.88
2024-02-22T13:57:51.875Z,30.96
2024-02-22T13:58:51.850Z,30.93
2024-02-22T13:59:51.840Z,30.84
2024-02-22T14:00:51.927Z,30.73
2024-02-22T14:01:52.492Z,30.76
2024-02-22T14:02:52.024Z,30.80
2024-02-22T14:03:52.099Z,30.69
2024-02-22T14:04:52.246Z,30.73
2024-02-22T14:05:53.593Z,30.85
2024-02-22T14:06:52.346Z,30.65
2024-02-22T14:07:52.279Z,30.81
2024-02-22T14:08:52.377Z,30.76
2024-02-22T14:09:52.255Z,30.73
2024-02-22T14:10:52.268Z,30.85
2024-02-22T14:11:52.160Z,30.76
2024-02-22T14:12:52.104Z,30.81
2024-02-22T14:13:52.008Z,30.83
2024-02-22T14:14:51.989Z,30.80
2024-02-22T14:15:52.055Z,30.89
2024-02-22T14:16:52.029Z,30.91
2024-02-22T14:17:52.012Z,30.83
2024-02-22T14:18:52.018Z,30.67
2024-02-22T14:19:52.020Z,30.72
2024-02-22T14:20:52.032Z,30.70
2024-02-22T14:21:51.996Z,30.69
2024-02-22T14:22:52.073Z,30.80
2024-02-22T14:23:52.141Z,30.74
2024-02-22T14:24:52.178Z,30.81
2024-02-22T14:25:52.301Z,30.77
2024-02-22T14:26:52.314Z,30.80
2024-02-22T14:27:52.367Z,30.84
2024-02-22T14:28:52.483Z,30.78
2024-02-22T14:29:52.497Z,30.89
2024-02-22T14:30:52.543Z,30.89
2024-02-22T14:31:52.635Z,30.99
2024-02-22T14:32:53.130Z,31.01
2024-02-22T14:33:52.814Z,30.99
2024-02-22T14:34:53.451Z,31.03
2024-02-22T14:35:52.859Z,31.05
2024-02-22T14:36:52.954Z,30.95
2024-02-22T14:37:53.046Z,30.92
2024-02-22T14:38:53.052Z,30.89
2024-02-22T14:39:53.136Z,30.84
2024-02-22T14:40:53.212Z,30.77
2024-02-22T14:41:53.247Z,30.82
2024-02-22T14:42:53.345Z,30.90
2024-02-22T14:43:53.373Z,30.85
2024-02-22T14:44:53.420Z,30.90
2024-02-22T14:45:53.626Z,30.80
2024-02-22T14:46:53.566Z,30.77
2024-02-22T14:47:53.674Z,30.82
2024-02-22T14:48:53.694Z,30.93
2024-02-22T14:49:54.228Z,30.94
2024-02-22T14:50:54.097Z,30.77
2024-02-22T14:51:53.844Z,30.76
2024-02-22T14:52:53.993Z,30.98
2024-02-22T14:53:53.932Z,30.90
2024-02-22T14:54:53.978Z,30.91
2024-02-22T14:55:54.075Z,30.94
2024-02-22T14:56:54.125Z,31.01
2024-02-22T14:57:54.645Z,30.93
2024-02-22T14:58:54.311Z,30.95
2024-02-22T14:59:54.265Z,31.05
2024-02-22T15:00:54.382Z,31.10
2024-02-22T15:01:54.385Z,31.02
2024-02-22T15:02:54.626Z,31.20
2024-02-22T15:03:54.486Z,31.02
2024-02-22T15:04:54.601Z,31.05
2024-02-22T15:05:54.702Z,31.22
2024-02-22T15:06:54.741Z,31.02
2024-02-22T15:07:55.183Z,31.81
2024-02-22T15:08:54.871Z,31.79
2024-02-22T15:09:54.893Z,31.34
2024-02-22T15:10:55.052Z,31.49
2024-02-22T15:11:55.142Z,31.51
2024-02-22T15:12:55.104Z,31.29
2024-02-22T15:13:55.209Z,31.19
2024-02-22T15:14:55.430Z,31.23
2024-02-22T15:15:55.318Z,31.20
2024-02-22T15:16:55.416Z,31.20
2024-02-22T15:17:55.493Z,31.16
2024-02-22T15:18:55.595Z,31.00
2024-02-22T15:19:55.616Z,31.02
2024-02-22T15:20:55.641Z,31.00
2024-02-22T15:21:55.710Z,30.95
2024-02-22T15:22:56.169Z,30.76
2024-02-22T15:23:55.889Z,30.91
2024-02-22T15:24:55.946Z,30.96
2024-02-22T15:25:56.062Z,30.95
2024-02-22T15:26:56.097Z,30.98
2024-02-22T15:27:56.129Z,31.06
2024-02-22T15:28:56.241Z,31.00
2024-02-22T15:29:56.285Z,31.13
2024-02-22T15:30:58.867Z,30.90
2024-02-22T15:31:56.363Z,30.70
2024-02-22T15:32:56.416Z,30.54
2024-02-22T15:34:04.581Z,30.46
2024-02-22T15:34:56.489Z,30.38
2024-02-22T15:35:56.427Z,30.12
2024-02-22T15:36:56.363Z,30.06
2024-02-22T15:37:56.394Z,29.90
2024-02-22T15:38:56.367Z,29.75
2024-02-22T15:39:56.375Z,29.59
2024-02-22T15:40:56.425Z,29.80
2024-02-22T15:41:56.367Z,29.60
2024-02-22T15:42:56.654Z,29.55
2024-02-22T15:43:56.412Z,29.58
2024-02-22T15:44:56.374Z,29.51
2024-02-22T15:45:56.376Z,29.36
2024-02-22T15:46:56.408Z,29.37
2024-02-22T15:47:56.444Z,29.49
2024-02-22T15:48:56.477Z,29.52
2024-02-22T15:49:56.405Z,29.57
2024-02-22T15:50:56.393Z,29.61
2024-02-22T15:51:56.380Z,29.65
2024-02-22T15:52:56.689Z,30.06
2024-02-22T15:53:56.389Z,30.38
2024-02-22T15:54:56.377Z,30.51
2024-02-22T15:55:56.417Z,30.37
2024-02-22T15:56:56.678Z,30.53
2024-02-22T15:57:56.394Z,30.50
2024-02-22T15:58:56.477Z,30.50
2024-02-22T15:59:56.387Z,30.28
2024-02-22T16:00:56.477Z,30.51
2024-02-22T16:01:56.431Z,30.32
2024-02-22T16:02:56.408Z,30.35
2024-02-22T16:03:56.429Z,30.46
2024-02-22T16:04:56.521Z,30.50
2024-02-22T16:05:56.456Z,30.40
2024-02-22T16:06:56.392Z,30.35
2024-02-22T16:07:56.426Z,30.37
2024-02-22T16:08:56.384Z,30.37
2024-02-22T16:09:56.387Z,30.14
2024-02-22T16:10:56.570Z,30.21
2024-02-22T16:11:56.525Z,30.22
2024-02-22T16:12:56.568Z,30.14
2024-02-22T16:13:56.697Z,30.01
2024-02-22T16:14:56.666Z,30.00
2024-02-22T16:15:56.766Z,30.16
2024-02-22T16:16:56.993Z,30.19
2024-02-22T16:17:57.224Z,30.20
2024-02-22T16:18:57.522Z,30.17
2024-02-22T16:19:56.998Z,30.21
2024-02-22T16:20:57.042Z,30.25
2024-02-22T16:21:57.114Z,30.22
2024-02-22T16:22:57.196Z,30.24
2024-02-22T16:23:57.340Z,30.25
2024-02-22T16:24:57.280Z,30.25
2024-02-22T16:25:57.564Z,30.22
2024-02-22T16:26:57.389Z,30.25
2024-02-22T16:27:57.446Z,30.22
2024-02-22T16:28:57.583Z,30.15
2024-02-22T16:29:57.572Z,30.20
2024-02-22T16:30:57.682Z,30.22
2024-02-22T16:31:57.750Z,30.23
2024-02-22T16:32:57.889Z,30.23
2024-02-22T16:33:57.867Z,30.27
2024-02-22T16:34:57.915Z,30.23
2024-02-22T16:35:57.921Z,30.26
2024-02-22T16:36:57.990Z,30.23
2024-02-22T16:37:58.079Z,30.24
2024-02-22T16:39:02.880Z,30.23
2024-02-22T16:39:58.102Z,30.19
2024-02-22T16:40:58.203Z,30.19
2024-02-22T16:41:58.100Z,30.19
2024-02-22T16:42:58.113Z,30.21
2024-02-22T16:43:58.167Z,30.22
2024-02-22T16:44:58.152Z,30.16
2024-02-22T16:45:58.128Z,30.17
2024-02-22T16:46:58.126Z,30.15
2024-02-22T16:47:58.163Z,30.12
2024-02-22T16:48:58.204Z,30.10
2024-02-22T16:49:58.159Z,30.17
2024-02-22T16:50:58.121Z,30.16
2024-02-22T16:51:58.122Z,30.08
2024-02-22T16:52:58.158Z,30.08
2024-02-22T16:53:58.128Z,30.09
2024-02-22T16:54:58.124Z,30.09
2024-02-22T16:55:58.143Z,30.09
2024-02-22T16:56:58.122Z,30.08
2024-02-22T16:57:58.140Z,30.13
2024-02-22T16:58:58.142Z,30.09
2024-02-22T16:59:58.134Z,30.10
2024-02-22T17:00:58.178Z,30.07
2024-02-22T17:01:58.220Z,30.06
2024-02-22T17:02:58.162Z,30.09
2024-02-22T17:03:58.257Z,30.03
2024-02-22T17:04:58.367Z,30.06
2024-02-22T17:05:58.559Z,30.03
2024-02-22T17:06:58.476Z,29.99
2024-02-22T17:07:58.514Z,30.04
2024-02-22T17:08:58.536Z,30.02
2024-02-22T17:09:58.591Z,29.99
2024-02-22T17:10:58.726Z,30.00
2024-02-22T17:11:58.769Z,30.03
2024-02-22T17:12:58.745Z,30.01
2024-02-22T17:13:58.893Z,29.99
2024-02-22T17:14:58.862Z,29.99
2024-02-22T17:15:58.873Z,30.03
2024-02-22T17:16:58.978Z,30.00
2024-02-22T17:17:59.007Z,29.95
2024-02-22T17:18:59.055Z,29.97
2024-02-22T17:19:59.113Z,29.98
2024-02-22T17:20:59.117Z,29.97
2024-02-22T17:21:59.168Z,29.93
2024-02-22T17:22:59.261Z,29.96
2024-02-22T17:23:59.232Z,29.96
2024-02-22T17:24:59.302Z,29.94
2024-02-22T17:25:59.345Z,29.97
2024-02-22T17:26:59.368Z,29.96
2024-02-22T17:27:59.388Z,29.93
2024-02-22T17:28:59.468Z,29.93
2024-02-22T17:29:59.466Z,29.90
2024-02-22T17:30:59.509Z,29.89
2024-02-22T17:31:59.560Z,29.89
2024-02-22T17:32:59.656Z,29.91
2024-02-22T17:33:59.662Z,29.91
2024-02-22T17:34:59.677Z,29.91
2024-02-22T17:35:59.700Z,29.90
2024-02-22T17:36:59.762Z,29.90
2024-02-22T17:37:59.823Z,29.88
2024-02-22T17:38:59.837Z,29.87
2024-02-22T17:39:59.853Z,29.87
2024-02-22T17:40:59.947Z,29.86
2024-02-22T17:41:59.941Z,29.88
2024-02-22T17:42:59.971Z,29.82
2024-02-22T17:44:00.069Z,29.86
2024-02-22T17:45:00.017Z,29.87
2024-02-22T17:46:00.082Z,29.83
2024-02-22T17:47:00.140Z,29.87
2024-02-22T17:48:00.200Z,29.84
2024-02-22T17:49:00.251Z,29.86
2024-02-22T17:50:00.307Z,29.82
2024-02-22T17:51:00.295Z,29.83
2024-02-22T17:52:00.369Z,29.82
2024-02-22T17:53:00.499Z,29.82
2024-02-22T17:54:00.427Z,29.87
2024-02-22T17:55:00.499Z,29.82
2024-02-22T17:56:00.664Z,29.84
2024-02-22T17:57:02.272Z,29.86
2024-02-22T17:58:00.589Z,29.87
2024-02-22T17:59:00.613Z,29.80
2024-02-22T18:00:00.587Z,29.81
2024-02-22T18:01:00.676Z,29.80
2024-02-22T18:02:00.641Z,29.80
2024-02-22T18:03:03.983Z,29.80
2024-02-22T18:04:00.629Z,29.76
2024-02-22T18:05:00.847Z,29.72
2024-02-22T18:06:00.696Z,29.75
2024-02-22T18:07:00.702Z,29.72
2024-02-22T18:08:00.730Z,29.77
2024-02-22T18:09:00.708Z,29.84
2024-02-22T18:10:00.720Z,29.78
2024-02-22T18:11:00.823Z,29.84
2024-02-22T18:12:00.838Z,29.81
2024-02-22T18:13:00.757Z,29.80
2024-02-22T18:14:03.979Z,29.78
2024-02-22T18:15:00.754Z,29.74
2024-02-22T18:16:00.797Z,29.75
2024-02-22T18:17:00.826Z,29.76
2024-02-22T18:18:00.806Z,29.73
2024-02-22T18:19:00.863Z,29.70
2024-02-22T18:20:02.216Z,29.70
2024-02-22T18:21:00.788Z,29.78
2024-02-22T18:22:00.782Z,29.71
2024-02-22T18:23:00.841Z,29.74
2024-02-22T18:24:00.769Z,29.71
2024-02-22T18:25:00.799Z,29.72
2024-02-22T18:26:00.850Z,29.78
2024-02-22T18:27:00.795Z,29.75
2024-02-22T18:28:00.802Z,29.72
2024-02-22T18:29:00.802Z,29.71
2024-02-22T18:30:00.786Z,29.77
2024-02-22T18:31:00.775Z,29.74
2024-02-22T18:32:00.821Z,29.74
2024-02-22T18:33:00.834Z,29.74
2024-02-22T18:34:00.854Z,29.75
2024-02-22T18:35:01.010Z,29.74
2024-02-22T18:36:00.780Z,29.75
2024-02-22T18:37:00.817Z,29.72
2024-02-22T18:38:00.840Z,29.72
2024-02-22T18:39:00.819Z,29.72
2024-02-22T18:40:00.785Z,29.70
2024-02-22T18:41:00.842Z,29.75
2024-02-22T18:42:00.796Z,29.72
2024-02-22T18:43:00.791Z,29.74
2024-02-22T18:44:00.820Z,29.74
2024-02-22T18:45:03.051Z,29.71
2024-02-22T18:46:00.790Z,29.72
2024-02-22T18:47:00.817Z,29.75
2024-02-22T18:48:00.841Z,29.70
2024-02-22T18:49:00.854Z,29.72
2024-02-22T18:50:00.951Z,29.74
2024-02-22T18:51:00.804Z,29.72
2024-02-22T18:52:00.797Z,29.75
2024-02-22T18:53:00.864Z,29.72
2024-02-22T18:54:00.802Z,29.76
2024-02-22T18:55:00.802Z,29.68
2024-02-22T18:56:00.884Z,29.75
2024-02-22T18:57:00.826Z,29.70
2024-02-22T18:58:00.806Z,29.72
2024-02-22T18:59:00.864Z,29.76
2024-02-22T19:00:00.818Z,29.72
2024-02-22T19:01:00.916Z,29.72
2024-02-22T19:02:00.852Z,29.74
2024-02-22T19:03:00.832Z,29.73
2024-02-22T19:04:00.890Z,29.74
2024-02-22T19:05:00.888Z,29.73
2024-02-22T19:06:00.852Z,29.76
2024-02-22T19:07:00.836Z,29.75
2024-02-22T19:08:00.853Z,29.72
2024-02-22T19:09:01.239Z,29.76
2024-02-22T19:10:00.862Z,29.72
2024-02-22T19:11:00.884Z,29.75
2024-02-22T19:12:01.705Z,29.75
2024-02-22T19:13:00.855Z,29.73
2024-02-22T19:14:00.881Z,29.75
2024-02-22T19:15:00.874Z,29.73
2024-02-22T19:16:00.866Z,29.73
2024-02-22T19:17:00.887Z,29.73
2024-02-22T19:18:00.948Z,29.73
2024-02-22T19:19:00.908Z,29.71
2024-02-22T19:20:01.159Z,29.72
2024-02-22T19:21:00.989Z,29.68
2024-02-22T19:22:00.868Z,29.65
2024-02-22T19:23:00.886Z,29.65
2024-02-22T19:24:00.878Z,29.64
2024-02-22T19:25:00.924Z,29.64
2024-02-22T19:26:00.912Z,29.69
2024-02-22T19:27:02.875Z,29.61
2024-02-22T19:28:00.887Z,29.64
2024-02-22T19:29:00.908Z,29.62
2024-02-22T19:30:01.068Z,29.64
2024-02-22T19:31:00.893Z,29.60
2024-02-22T19:32:00.922Z,29.60
2024-02-22T19:33:00.909Z,29.62
2024-02-22T19:34:00.948Z,29.58
2024-02-22T19:35:01.043Z,29.62
2024-02-22T19:36:00.905Z,29.64
2024-02-22T19:37:00.908Z,29.62
2024-02-22T19:38:00.939Z,29.65
2024-02-22T19:39:00.946Z,29.61
2024-02-22T19:40:00.915Z,29.60
2024-02-22T19:41:01.763Z,29.61
2024-02-22T19:42:00.920Z,29.58
2024-02-22T19:43:00.924Z,29.54
2024-02-22T19:44:00.948Z,29.55
2024-02-22T19:45:00.922Z,29.58
2024-02-22T19:46:00.928Z,29.53
2024-02-22T19:47:01.010Z,29.57
2024-02-22T19:48:00.954Z,29.56
2024-02-22T19:49:01.014Z,29.54
2024-02-22T19:50:00.996Z,29.53
2024-02-22T19:51:00.925Z,29.53
2024-02-22T19:52:00.931Z,29.57
2024-02-22T19:53:00.978Z,29.57
2024-02-22T19:54:00.932Z,29.54
2024-02-22T19:55:00.953Z,29.49
2024-02-22T19:56:00.964Z,29.54
2024-02-22T19:57:00.987Z,29.55
2024-02-22T19:58:00.952Z,29.50
2024-02-22T19:59:01.367Z,29.53
2024-02-22T20:00:01.500Z,29.53
2024-02-22T20:01:01.293Z,29.51
2024-02-22T20:02:00.974Z,29.50
2024-02-22T20:03:00.952Z,29.55
2024-02-22T20:04:01.008Z,29.54
2024-02-22T20:05:00.993Z,29.55
2024-02-22T20:06:00.965Z,29.59
2024-02-22T20:07:01.082Z,29.50
2024-02-22T20:08:01.005Z,29.55
2024-02-22T20:09:00.981Z,29.51
2024-02-22T20:10:00.986Z,29.54
2024-02-22T20:11:01.116Z,29.51
2024-02-22T20:12:01.138Z,29.54
2024-02-22T20:13:01.022Z,29.54
2024-02-22T20:14:01.028Z,29.51
2024-02-22T20:15:01.057Z,29.51
2024-02-22T20:16:01.024Z,29.51
2024-02-22T20:17:01.108Z,29.53